sensor_id;sensor_type;location;lat;lon;timestamp;pressure;altitude;pressure_sealevel;temperature;humidity
52957;BME280;38819;42.692;23.342;2023-04-26T00:00:13;94370.09;;;11.62;75.79
52957;BME280;38819;42.692;23.342;2023-04-26T00:02:38;94384.72;;;11.61;76.39
52957;BME280;38819;42.692;23.342;2023-04-26T00:05:05;94376.13;;;11.59;76.62
52957;BME280;38819;42.692;23.342;2023-04-26T00:07:31;94365.16;;;11.55;76.84
52957;BME280;38819;42.692;23.342;2023-04-26T00:09:57;94368.97;;;11.54;77.19
52957;BME280;38819;42.692;23.342;2023-04-26T00:12:22;94366.78;;;11.56;76.50
52957;BME280;38819;42.692;23.342;2023-04-26T00:14:48;94361.84;;;11.49;76.91
52957;BME280;38819;42.692;23.342;2023-04-26T00:17:13;94354.38;;;11.38;77.41
52957;BME280;38819;42.692;23.342;2023-04-26T00:19:39;94349.59;;;11.35;77.74
52957;BME280;38819;42.692;23.342;2023-04-26T00:22:05;94343.56;;;11.38;77.23
52957;BME280;38819;42.692;23.342;2023-04-26T00:24:30;94350.41;;;11.26;77.51
52957;BME280;38819;42.692;23.342;2023-04-26T00:26:56;94348.31;;;11.23;77.78
52957;BME280;38819;42.692;23.342;2023-04-26T00:29:22;94347.84;;;11.21;77.95
52957;BME280;38819;42.692;23.342;2023-04-26T00:31:48;94342.44;;;11.21;77.87
52957;BME280;38819;42.692;23.342;2023-04-26T00:34:13;94338.13;;;11.20;77.87
52957;BME280;38819;42.692;23.342;2023-04-26T00:36:38;94331.13;;;11.10;78.22
52957;BME280;38819;42.692;23.342;2023-04-26T00:39:04;94334.00;;;11.05;78.03
52957;BME280;38819;42.692;23.342;2023-04-26T00:41:29;94332.06;;;10.97;78.56
52957;BME280;38819;42.692;23.342;2023-04-26T00:43:55;94336.22;;;11.03;78.53
52957;BME280;38819;42.692;23.342;2023-04-26T00:46:21;94331.91;;;10.93;78.80
52957;BME280;38819;42.692;23.342;2023-04-26T00:48:46;94328.28;;;10.89;78.82
52957;BME280;38819;42.692;23.342;2023-04-26T00:51:13;94331.59;;;10.86;78.83
52957;BME280;38819;42.692;23.342;2023-04-26T00:53:40;94341.41;;;10.73;79.32
52957;BME280;38819;42.692;23.342;2023-04-26T00:56:08;94340.34;;;10.83;79.26
52957;BME280;38819;42.692;23.342;2023-04-26T00:58:33;94335.88;;;10.87;78.57
52957;BME280;38819;42.692;23.342;2023-04-26T01:01:00;94340.16;;;10.71;79.20
52957;BME280;38819;42.692;23.342;2023-04-26T01:03:26;94345.69;;;10.66;79.81
52957;BME280;38819;42.692;23.342;2023-04-26T01:05:52;94336.63;;;10.62;79.52
52957;BME280;38819;42.692;23.342;2023-04-26T01:08:18;94337.28;;;10.67;79.29
52957;BME280;38819;42.692;23.342;2023-04-26T01:10:46;94347.47;;;10.79;78.95
52957;BME280;38819;42.692;23.342;2023-04-26T01:13:13;94354.16;;;10.82;78.71
52957;BME280;38819;42.692;23.342;2023-04-26T01:15:44;94354.97;;;10.91;78.35
52957;BME280;38819;42.692;23.342;2023-04-26T01:18:10;94346.88;;;10.91;78.22
52957;BME280;38819;42.692;23.342;2023-04-26T01:20:35;94344.50;;;10.98;77.68
52957;BME280;38819;42.692;23.342;2023-04-26T01:23:01;94348.13;;;10.93;77.35
52957;BME280;38819;42.692;23.342;2023-04-26T01:25:27;94336.69;;;10.88;77.71
52957;BME280;38819;42.692;23.342;2023-04-26T01:27:52;94331.75;;;10.81;78.07
52957;BME280;38819;42.692;23.342;2023-04-26T01:30:18;94323.97;;;10.71;78.43
52957;BME280;38819;42.692;23.342;2023-04-26T01:32:43;94313.63;;;10.73;78.29
52957;BME280;38819;42.692;23.342;2023-04-26T01:35:09;94331.91;;;10.76;77.97
52957;BME280;38819;42.692;23.342;2023-04-26T01:37:34;94332.84;;;10.80;77.90
52957;BME280;38819;42.692;23.342;2023-04-26T01:40:00;94328.25;;;10.81;77.54
52957;BME280;38819;42.692;23.342;2023-04-26T01:42:25;94338.72;;;10.82;77.41
52957;BME280;38819;42.692;23.342;2023-04-26T01:44:51;94331.13;;;10.84;77.13
52957;BME280;38819;42.692;23.342;2023-04-26T01:47:16;94334.63;;;10.85;76.85
52957;BME280;38819;42.692;23.342;2023-04-26T01:49:42;94346.53;;;10.84;77.05
52957;BME280;38819;42.692;23.342;2023-04-26T01:52:07;94348.75;;;10.82;76.96
52957;BME280;38819;42.692;23.342;2023-04-26T01:54:33;94344.13;;;10.82;77.21
52957;BME280;38819;42.692;23.342;2023-04-26T01:56:58;94340.63;;;10.73;77.26
52957;BME280;38819;42.692;23.342;2023-04-26T01:59:23;94337.78;;;10.69;78.13
52957;BME280;38819;42.692;23.342;2023-04-26T02:01:49;94337.09;;;10.64;78.23
52957;BME280;38819;42.692;23.342;2023-04-26T02:04:15;94340.44;;;10.61;78.38
52957;BME280;38819;42.692;23.342;2023-04-26T02:06:40;94332.00;;;10.62;78.51
52957;BME280;38819;42.692;23.342;2023-04-26T02:09:06;94319.13;;;10.50;78.76
52957;BME280;38819;42.692;23.342;2023-04-26T02:11:33;94323.03;;;10.35;79.71
52957;BME280;38819;42.692;23.342;2023-04-26T02:13:59;94324.03;;;10.40;79.92
52957;BME280;38819;42.692;23.342;2023-04-26T02:16:25;94323.09;;;10.44;80.10
52957;BME280;38819;42.692;23.342;2023-04-26T02:18:51;94321.81;;;10.42;80.27
52957;BME280;38819;42.692;23.342;2023-04-26T02:21:17;94311.63;;;10.38;79.95
52957;BME280;38819;42.692;23.342;2023-04-26T02:23:43;94319.88;;;10.33;80.03
52957;BME280;38819;42.692;23.342;2023-04-26T02:26:09;94318.16;;;10.37;79.93
52957;BME280;38819;42.692;23.342;2023-04-26T02:28:36;94316.25;;;10.38;79.56
52957;BME280;38819;42.692;23.342;2023-04-26T02:31:01;94316.88;;;10.35;79.75
52957;BME280;38819;42.692;23.342;2023-04-26T02:33:27;94311.28;;;10.31;79.54
52957;BME280;38819;42.692;23.342;2023-04-26T02:35:52;94316.81;;;10.26;79.72
52957;BME280;38819;42.692;23.342;2023-04-26T02:38:18;94317.66;;;10.35;79.46
52957;BME280;38819;42.692;23.342;2023-04-26T02:40:43;94321.34;;;10.40;79.40
52957;BME280;38819;42.692;23.342;2023-04-26T02:43:10;94322.28;;;10.44;79.39
52957;BME280;38819;42.692;23.342;2023-04-26T02:45:42;94330.22;;;10.49;78.97
52957;BME280;38819;42.692;23.342;2023-04-26T02:48:07;94325.59;;;10.41;79.59
52957;BME280;38819;42.692;23.342;2023-04-26T02:50:33;94318.78;;;10.43;79.68
52957;BME280;38819;42.692;23.342;2023-04-26T02:52:58;94319.66;;;10.30;79.81
52957;BME280;38819;42.692;23.342;2023-04-26T02:55:23;94309.19;;;10.28;80.07
52957;BME280;38819;42.692;23.342;2023-04-26T02:57:49;94300.63;;;10.26;79.94
52957;BME280;38819;42.692;23.342;2023-04-26T03:00:15;94300.13;;;10.24;78.99
52957;BME280;38819;42.692;23.342;2023-04-26T03:02:40;94296.28;;;10.16;78.75
52957;BME280;38819;42.692;23.342;2023-04-26T03:05:06;94296.91;;;10.13;78.50
52957;BME280;38819;42.692;23.342;2023-04-26T03:07:33;94305.69;;;10.19;78.35
52957;BME280;38819;42.692;23.342;2023-04-26T03:09:59;94310.13;;;10.24;77.64
52957;BME280;38819;42.692;23.342;2023-04-26T03:12:25;94309.00;;;10.16;77.63
52957;BME280;38819;42.692;23.342;2023-04-26T03:14:50;94309.31;;;10.14;78.05
52957;BME280;38819;42.692;23.342;2023-04-26T03:17:16;94315.22;;;10.25;78.85
52957;BME280;38819;42.692;23.342;2023-04-26T03:19:41;94304.88;;;10.27;79.30
52957;BME280;38819;42.692;23.342;2023-04-26T03:22:07;94306.06;;;10.35;79.10
52957;BME280;38819;42.692;23.342;2023-04-26T03:24:32;94302.88;;;10.33;78.98
52957;BME280;38819;42.692;23.342;2023-04-26T03:26:58;94301.88;;;10.29;79.07
52957;BME280;38819;42.692;23.342;2023-04-26T03:29:24;94294.03;;;10.41;77.75
52957;BME280;38819;42.692;23.342;2023-04-26T03:31:49;94293.88;;;10.37;77.92
52957;BME280;38819;42.692;23.342;2023-04-26T03:34:15;94307.53;;;10.41;78.24
52957;BME280;38819;42.692;23.342;2023-04-26T03:36:40;94304.81;;;10.41;77.61
52957;BME280;38819;42.692;23.342;2023-04-26T03:39:06;94301.97;;;10.46;76.93
52957;BME280;38819;42.692;23.342;2023-04-26T03:41:31;94303.75;;;10.51;76.90
52957;BME280;38819;42.692;23.342;2023-04-26T03:43:57;94303.59;;;10.56;76.81
52957;BME280;38819;42.692;23.342;2023-04-26T03:46:23;94303.75;;;10.60;76.29
52957;BME280;38819;42.692;23.342;2023-04-26T03:48:48;94313.16;;;10.71;75.96
52957;BME280;38819;42.692;23.342;2023-04-26T03:51:13;94307.09;;;10.74;76.07
52957;BME280;38819;42.692;23.342;2023-04-26T03:53:39;94322.53;;;10.82;76.74
52957;BME280;38819;42.692;23.342;2023-04-26T03:56:05;94325.06;;;10.87;77.13
52957;BME280;38819;42.692;23.342;2023-04-26T03:58:32;94323.34;;;10.91;77.32
52957;BME280;38819;42.692;23.342;2023-04-26T04:00:57;94319.03;;;10.99;77.17
52957;BME280;38819;42.692;23.342;2023-04-26T04:03:22;94314.28;;;10.96;76.96
52957;BME280;38819;42.692;23.342;2023-04-26T04:05:48;94314.75;;;11.07;76.76
52957;BME280;38819;42.692;23.342;2023-04-26T04:08:14;94322.25;;;11.10;76.73
52957;BME280;38819;42.692;23.342;2023-04-26T04:10:40;94321.28;;;11.15;76.52
52957;BME280;38819;42.692;23.342;2023-04-26T04:13:07;94335.75;;;11.19;76.18
52957;BME280;38819;42.692;23.342;2023-04-26T04:15:32;94331.94;;;11.11;75.24
52957;BME280;38819;42.692;23.342;2023-04-26T04:17:58;94343.06;;;11.09;73.93
52957;BME280;38819;42.692;23.342;2023-04-26T04:20:23;94345.59;;;11.06;72.85
52957;BME280;38819;42.692;23.342;2023-04-26T04:22:48;94344.19;;;11.08;73.55
52957;BME280;38819;42.692;23.342;2023-04-26T04:25:15;94343.72;;;11.06;73.33
52957;BME280;38819;42.692;23.342;2023-04-26T04:27:41;94335.59;;;11.06;73.48
52957;BME280;38819;42.692;23.342;2023-04-26T04:30:08;94346.25;;;11.11;73.20
52957;BME280;38819;42.692;23.342;2023-04-26T04:32:34;94345.63;;;11.23;73.33
52957;BME280;38819;42.692;23.342;2023-04-26T04:35:00;94346.25;;;11.29;73.26
52957;BME280;38819;42.692;23.342;2023-04-26T04:37:26;94340.06;;;11.20;73.31
52957;BME280;38819;42.692;23.342;2023-04-26T04:39:52;94351.00;;;11.41;72.58
52957;BME280;38819;42.692;23.342;2023-04-26T04:42:18;94346.09;;;11.43;71.99
52957;BME280;38819;42.692;23.342;2023-04-26T04:44:44;94354.84;;;11.40;71.63
52957;BME280;38819;42.692;23.342;2023-04-26T04:47:11;94360.88;;;11.45;71.75
52957;BME280;38819;42.692;23.342;2023-04-26T04:49:37;94356.75;;;11.48;71.31
52957;BME280;38819;42.692;23.342;2023-04-26T04:52:03;94348.00;;;11.51;71.45
52957;BME280;38819;42.692;23.342;2023-04-26T04:54:28;94357.38;;;11.54;71.19
52957;BME280;38819;42.692;23.342;2023-04-26T04:56:54;94350.03;;;11.54;71.27
52957;BME280;38819;42.692;23.342;2023-04-26T04:59:19;94353.72;;;11.58;71.18
52957;BME280;38819;42.692;23.342;2023-04-26T05:01:45;94353.25;;;11.47;71.33
52957;BME280;38819;42.692;23.342;2023-04-26T05:04:10;94352.94;;;11.58;71.14
52957;BME280;38819;42.692;23.342;2023-04-26T05:06:35;94356.72;;;11.65;71.01
52957;BME280;38819;42.692;23.342;2023-04-26T05:09:01;94358.47;;;11.70;70.40
52957;BME280;38819;42.692;23.342;2023-04-26T05:11:26;94360.53;;;11.73;70.73
52957;BME280;38819;42.692;23.342;2023-04-26T05:13:52;94342.53;;;11.77;70.82
52957;BME280;38819;42.692;23.342;2023-04-26T05:16:17;94353.69;;;11.84;70.56
52957;BME280;38819;42.692;23.342;2023-04-26T05:18:43;94356.41;;;11.84;69.76
52957;BME280;38819;42.692;23.342;2023-04-26T05:21:08;94351.31;;;11.92;69.58
52957;BME280;38819;42.692;23.342;2023-04-26T05:23:34;94352.56;;;11.94;69.35
52957;BME280;38819;42.692;23.342;2023-04-26T05:26:01;94359.56;;;11.95;69.09
52957;BME280;38819;42.692;23.342;2023-04-26T05:28:26;94363.88;;;11.96;69.36
52957;BME280;38819;42.692;23.342;2023-04-26T05:30:52;94365.63;;;11.92;69.65
52957;BME280;38819;42.692;23.342;2023-04-26T05:33:17;94365.13;;;11.90;70.23
52957;BME280;38819;42.692;23.342;2023-04-26T05:35:43;94376.75;;;11.82;70.98
52957;BME280;38819;42.692;23.342;2023-04-26T05:38:08;94362.78;;;11.62;71.68
52957;BME280;38819;42.692;23.342;2023-04-26T05:40:33;94369.00;;;11.63;71.95
52957;BME280;38819;42.692;23.342;2023-04-26T05:42:59;94375.66;;;11.65;71.85
52957;BME280;38819;42.692;23.342;2023-04-26T05:45:25;94371.22;;;11.70;71.38
52957;BME280;38819;42.692;23.342;2023-04-26T05:47:50;94371.97;;;11.79;71.38
52957;BME280;38819;42.692;23.342;2023-04-26T05:50:16;94373.59;;;11.62;71.15
52957;BME280;38819;42.692;23.342;2023-04-26T05:52:41;94383.16;;;11.60;71.51
52957;BME280;38819;42.692;23.342;2023-04-26T05:55:07;94384.06;;;11.73;70.53
52957;BME280;38819;42.692;23.342;2023-04-26T05:57:33;94379.34;;;11.70;70.74
52957;BME280;38819;42.692;23.342;2023-04-26T05:59:58;94381.38;;;11.64;71.55
52957;BME280;38819;42.692;23.342;2023-04-26T06:02:25;94382.69;;;11.58;71.43
52957;BME280;38819;42.692;23.342;2023-04-26T06:04:50;94386.03;;;11.55;72.08
52957;BME280;38819;42.692;23.342;2023-04-26T06:07:16;94378.69;;;11.55;71.92
52957;BME280;38819;42.692;23.342;2023-04-26T06:09:41;94382.69;;;11.58;72.14
52957;BME280;38819;42.692;23.342;2023-04-26T06:12:07;94377.56;;;11.39;72.70
52957;BME280;38819;42.692;23.342;2023-04-26T06:14:33;94385.38;;;11.49;72.95
52957;BME280;38819;42.692;23.342;2023-04-26T06:16:58;94380.44;;;11.34;73.10
52957;BME280;38819;42.692;23.342;2023-04-26T06:19:24;94374.41;;;11.45;73.68
52957;BME280;38819;42.692;23.342;2023-04-26T06:21:49;94384.88;;;11.56;73.39
52957;BME280;38819;42.692;23.342;2023-04-26T06:24:16;94383.16;;;11.60;72.36
52957;BME280;38819;42.692;23.342;2023-04-26T06:26:41;94386.00;;;11.63;73.16
52957;BME280;38819;42.692;23.342;2023-04-26T06:29:07;94383.94;;;11.78;72.50
52957;BME280;38819;42.692;23.342;2023-04-26T06:31:32;94385.03;;;11.85;72.52
52957;BME280;38819;42.692;23.342;2023-04-26T06:33:57;94375.34;;;11.84;72.49
52957;BME280;38819;42.692;23.342;2023-04-26T06:36:23;94386.31;;;11.97;72.29
52957;BME280;38819;42.692;23.342;2023-04-26T06:38:49;94386.97;;;11.94;72.25
52957;BME280;38819;42.692;23.342;2023-04-26T06:41:14;94388.25;;;11.96;71.12
52957;BME280;38819;42.692;23.342;2023-04-26T06:43:40;94384.06;;;12.08;70.08
52957;BME280;38819;42.692;23.342;2023-04-26T06:46:05;94379.56;;;12.20;69.65
52957;BME280;38819;42.692;23.342;2023-04-26T06:48:31;94379.84;;;12.36;69.66
52957;BME280;38819;42.692;23.342;2023-04-26T06:50:57;94376.75;;;12.55;66.88
52957;BME280;38819;42.692;23.342;2023-04-26T06:53:22;94381.31;;;12.64;65.09
52957;BME280;38819;42.692;23.342;2023-04-26T06:55:48;94380.72;;;12.58;63.45
52957;BME280;38819;42.692;23.342;2023-04-26T06:58:13;94388.00;;;12.66;62.26
52957;BME280;38819;42.692;23.342;2023-04-26T07:00:39;94382.25;;;12.68;62.44
52957;BME280;38819;42.692;23.342;2023-04-26T07:03:04;94394.03;;;12.72;62.26
52957;BME280;38819;42.692;23.342;2023-04-26T07:05:30;94388.31;;;12.73;61.33
52957;BME280;38819;42.692;23.342;2023-04-26T07:07:55;94389.72;;;12.71;61.19
52957;BME280;38819;42.692;23.342;2023-04-26T07:10:21;94384.78;;;12.73;61.26
52957;BME280;38819;42.692;23.342;2023-04-26T07:12:46;94397.97;;;12.83;61.83
52957;BME280;38819;42.692;23.342;2023-04-26T07:15:12;94386.84;;;12.76;62.86
52957;BME280;38819;42.692;23.342;2023-04-26T07:17:37;94392.25;;;12.85;62.51
52957;BME280;38819;42.692;23.342;2023-04-26T07:20:03;94395.63;;;12.73;62.03
52957;BME280;38819;42.692;23.342;2023-04-26T07:22:28;94395.63;;;12.73;60.81
52957;BME280;38819;42.692;23.342;2023-04-26T07:24:54;94401.53;;;12.66;60.79
52957;BME280;38819;42.692;23.342;2023-04-26T07:27:19;94393.25;;;12.71;61.67
52957;BME280;38819;42.692;23.342;2023-04-26T07:29:45;94398.50;;;12.68;60.40
52957;BME280;38819;42.692;23.342;2023-04-26T07:32:11;94389.69;;;12.50;61.75
52957;BME280;38819;42.692;23.342;2023-04-26T07:34:37;94399.69;;;12.49;61.34
52957;BME280;38819;42.692;23.342;2023-04-26T07:37:02;94407.66;;;12.54;60.87
52957;BME280;38819;42.692;23.342;2023-04-26T07:39:28;94401.72;;;12.61;61.24
52957;BME280;38819;42.692;23.342;2023-04-26T07:41:54;94408.28;;;12.60;60.62
52957;BME280;38819;42.692;23.342;2023-04-26T07:44:19;94406.41;;;12.52;60.36
52957;BME280;38819;42.692;23.342;2023-04-26T07:46:45;94407.69;;;12.46;61.41
52957;BME280;38819;42.692;23.342;2023-04-26T07:49:10;94408.63;;;12.50;60.29
52957;BME280;38819;42.692;23.342;2023-04-26T07:51:36;94405.09;;;12.58;60.03
52957;BME280;38819;42.692;23.342;2023-04-26T07:54:01;94409.25;;;12.55;58.60
52957;BME280;38819;42.692;23.342;2023-04-26T07:56:27;94422.00;;;12.55;57.70
52957;BME280;38819;42.692;23.342;2023-04-26T07:58:52;94433.63;;;12.55;57.34
52957;BME280;38819;42.692;23.342;2023-04-26T08:01:17;94415.34;;;12.44;58.01
52957;BME280;38819;42.692;23.342;2023-04-26T08:03:43;94427.44;;;12.46;58.09
52957;BME280;38819;42.692;23.342;2023-04-26T08:06:08;94424.06;;;12.49;58.08
52957;BME280;38819;42.692;23.342;2023-04-26T08:08:34;94410.53;;;12.49;58.34
52957;BME280;38819;42.692;23.342;2023-04-26T08:11:07;94405.09;;;12.58;58.45
52957;BME280;38819;42.692;23.342;2023-04-26T08:13:32;94412.03;;;12.76;57.84
52957;BME280;38819;42.692;23.342;2023-04-26T08:15:58;94412.78;;;12.86;57.58
52957;BME280;38819;42.692;23.342;2023-04-26T08:18:23;94414.97;;;12.92;57.34
52957;BME280;38819;42.692;23.342;2023-04-26T08:20:49;94430.50;;;12.83;58.01
52957;BME280;38819;42.692;23.342;2023-04-26T08:23:14;94417.09;;;12.87;58.19
52957;BME280;38819;42.692;23.342;2023-04-26T08:25:40;94422.59;;;12.99;57.78
52957;BME280;38819;42.692;23.342;2023-04-26T08:28:05;94415.03;;;12.84;58.34
52957;BME280;38819;42.692;23.342;2023-04-26T08:30:32;94420.41;;;12.92;57.99
52957;BME280;38819;42.692;23.342;2023-04-26T08:32:58;94405.22;;;13.00;57.56
52957;BME280;38819;42.692;23.342;2023-04-26T08:35:23;94412.84;;;13.07;57.36
52957;BME280;38819;42.692;23.342;2023-04-26T08:37:49;94419.00;;;13.16;57.28
52957;BME280;38819;42.692;23.342;2023-04-26T08:40:21;94422.00;;;13.23;56.73
52957;BME280;38819;42.692;23.342;2023-04-26T08:42:48;94413.19;;;13.26;56.60
52957;BME280;38819;42.692;23.342;2023-04-26T08:45:14;94415.91;;;13.26;56.77
52957;BME280;38819;42.692;23.342;2023-04-26T08:47:46;94412.53;;;13.38;57.05
52957;BME280;38819;42.692;23.342;2023-04-26T08:50:13;94421.56;;;13.42;55.45
52957;BME280;38819;42.692;23.342;2023-04-26T08:52:40;94410.06;;;13.45;55.26
52957;BME280;38819;42.692;23.342;2023-04-26T08:55:07;94415.50;;;13.45;55.08
52957;BME280;38819;42.692;23.342;2023-04-26T08:57:34;94418.47;;;13.52;54.94
52957;BME280;38819;42.692;23.342;2023-04-26T09:00:01;94416.94;;;13.43;54.48
52957;BME280;38819;42.692;23.342;2023-04-26T09:02:28;94415.16;;;13.47;54.51
52957;BME280;38819;42.692;23.342;2023-04-26T09:04:53;94415.16;;;13.47;54.62
52957;BME280;38819;42.692;23.342;2023-04-26T09:07:21;94427.75;;;13.51;54.41
52957;BME280;38819;42.692;23.342;2023-04-26T09:09:51;94420.41;;;13.52;54.08
52957;BME280;38819;42.692;23.342;2023-04-26T09:12:19;94416.09;;;13.51;55.09
52957;BME280;38819;42.692;23.342;2023-04-26T09:14:46;94416.53;;;13.53;53.67
52957;BME280;38819;42.692;23.342;2023-04-26T09:17:25;94416.81;;;13.60;53.91
52957;BME280;38819;42.692;23.342;2023-04-26T09:19:51;94422.19;;;13.69;53.84
52957;BME280;38819;42.692;23.342;2023-04-26T09:22:36;94426.16;;;13.71;52.83
52957;BME280;38819;42.692;23.342;2023-04-26T09:25:03;94420.72;;;13.71;52.82
52957;BME280;38819;42.692;23.342;2023-04-26T09:27:37;94422.19;;;13.69;52.33
52957;BME280;38819;42.692;23.342;2023-04-26T09:30:04;94424.03;;;13.77;52.61
52957;BME280;38819;42.692;23.342;2023-04-26T09:32:52;94443.47;;;13.79;51.98
52957;BME280;38819;42.692;23.342;2023-04-26T09:37:53;94427.72;;;13.73;52.52
52957;BME280;38819;42.692;23.342;2023-04-26T09:40:20;94420.00;;;13.83;52.60
52957;BME280;38819;42.692;23.342;2023-04-26T09:42:46;94417.78;;;13.98;51.52
52957;BME280;38819;42.692;23.342;2023-04-26T09:45:11;94410.44;;;13.98;51.53
52957;BME280;38819;42.692;23.342;2023-04-26T09:47:37;94418.66;;;13.89;50.90
52957;BME280;38819;42.692;23.342;2023-04-26T09:50:02;94422.38;;;13.85;50.64
52957;BME280;38819;42.692;23.342;2023-04-26T09:52:28;94422.03;;;13.86;50.51
52957;BME280;38819;42.692;23.342;2023-04-26T09:54:54;94408.59;;;13.90;50.83
52957;BME280;38819;42.692;23.342;2023-04-26T09:57:20;94415.06;;;13.98;50.45
52957;BME280;38819;42.692;23.342;2023-04-26T09:59:49;94412.69;;;13.96;50.63
52957;BME280;38819;42.692;23.342;2023-04-26T10:02:25;94408.88;;;14.09;49.98
52957;BME280;38819;42.692;23.342;2023-04-26T10:04:53;94407.88;;;14.14;50.11
52957;BME280;38819;42.692;23.342;2023-04-26T10:07:20;94409.28;;;14.20;49.60
52957;BME280;38819;42.692;23.342;2023-04-26T10:09:47;94420.00;;;14.17;48.88
52957;BME280;38819;42.692;23.342;2023-04-26T10:12:15;94408.88;;;14.09;48.83
52957;BME280;38819;42.692;23.342;2023-04-26T10:14:41;94415.94;;;14.23;48.44
52957;BME280;38819;42.692;23.342;2023-04-26T10:17:09;94419.06;;;14.13;47.37
52957;BME280;38819;42.692;23.342;2023-04-26T10:19:35;94404.22;;;13.98;46.97
52957;BME280;38819;42.692;23.342;2023-04-26T10:22:08;94390.28;;;13.66;47.69
52957;BME280;38819;42.692;23.342;2023-04-26T10:24:35;94415.03;;;13.85;47.46
52957;BME280;38819;42.692;23.342;2023-04-26T10:27:01;94399.75;;;13.93;47.02
52957;BME280;38819;42.692;23.342;2023-04-26T10:32:20;94398.91;;;14.01;47.40
52957;BME280;38819;42.692;23.342;2023-04-26T10:35:11;94383.66;;;14.09;47.64
52957;BME280;38819;42.692;23.342;2023-04-26T10:40:36;94389.84;;;13.97;46.11
52957;BME280;38819;42.692;23.342;2023-04-26T10:45:41;94394.88;;;14.20;46.09
52957;BME280;38819;42.692;23.342;2023-04-26T10:48:21;94395.47;;;14.25;45.43
52957;BME280;38819;42.692;23.342;2023-04-26T10:58:47;94378.19;;;14.30;44.62
52957;BME280;38819;42.692;23.342;2023-04-26T11:01:17;94392.53;;;14.31;43.92
52957;BME280;38819;42.692;23.342;2023-04-26T11:06:25;94405.47;;;14.34;43.83
52957;BME280;38819;42.692;23.342;2023-04-26T11:08:53;94401.81;;;14.30;43.63
52957;BME280;38819;42.692;23.342;2023-04-26T11:11:24;94405.69;;;14.29;43.49
52957;BME280;38819;42.692;23.342;2023-04-26T11:13:50;94375.91;;;14.32;43.78
52957;BME280;38819;42.692;23.342;2023-04-26T11:16:16;94394.81;;;14.41;43.55
52957;BME280;38819;42.692;23.342;2023-04-26T11:18:46;94385.22;;;14.43;43.81
52957;BME280;38819;42.692;23.342;2023-04-26T11:21:12;94381.00;;;14.34;43.83
52957;BME280;38819;42.692;23.342;2023-04-26T11:23:42;94381.34;;;14.44;43.34
52957;BME280;38819;42.692;23.342;2023-04-26T11:26:08;94384.19;;;14.48;43.64
52957;BME280;38819;42.692;23.342;2023-04-26T11:28:35;94394.94;;;14.44;43.70
52957;BME280;38819;42.692;23.342;2023-04-26T11:31:05;94395.94;;;14.40;43.63
52957;BME280;38819;42.692;23.342;2023-04-26T11:33:31;94400.81;;;14.46;43.40
52957;BME280;38819;42.692;23.342;2023-04-26T11:35:58;94397.91;;;14.52;43.21
52957;BME280;38819;42.692;23.342;2023-04-26T11:38:26;94378.25;;;14.67;43.54
52957;BME280;38819;42.692;23.342;2023-04-26T11:41:01;94386.06;;;14.81;42.95
52957;BME280;38819;42.692;23.342;2023-04-26T11:43:34;94399.56;;;14.77;42.71
52957;BME280;38819;42.692;23.342;2023-04-26T11:46:01;94390.34;;;14.70;43.08
52957;BME280;38819;42.692;23.342;2023-04-26T11:48:27;94384.13;;;14.69;42.97
52957;BME280;38819;42.692;23.342;2023-04-26T11:50:55;94399.56;;;14.77;42.34
52957;BME280;38819;42.692;23.342;2023-04-26T11:53:21;94379.38;;;14.91;41.87
52957;BME280;38819;42.692;23.342;2023-04-26T11:55:46;94386.06;;;14.93;42.26
52957;BME280;38819;42.692;23.342;2023-04-26T11:58:13;94370.31;;;14.99;41.81
52957;BME280;38819;42.692;23.342;2023-04-26T12:03:21;94378.59;;;15.03;41.86
52957;BME280;38819;42.692;23.342;2023-04-26T12:05:53;94400.69;;;15.01;42.85
52957;BME280;38819;42.692;23.342;2023-04-26T12:08:23;94393.75;;;14.91;42.92
52957;BME280;38819;42.692;23.342;2023-04-26T12:10:48;94389.69;;;14.73;42.62
52957;BME280;38819;42.692;23.342;2023-04-26T12:13:14;94376.66;;;14.66;43.26
52957;BME280;38819;42.692;23.342;2023-04-26T12:15:40;94376.31;;;14.68;43.31
52957;BME280;38819;42.692;23.342;2023-04-26T12:18:09;94383.56;;;14.76;42.83
52957;BME280;38819;42.692;23.342;2023-04-26T12:20:36;94359.66;;;14.81;42.71
52957;BME280;38819;42.692;23.342;2023-04-26T12:23:08;94367.97;;;14.85;42.62
52957;BME280;38819;42.692;23.342;2023-04-26T12:25:34;94378.59;;;14.90;42.80
52957;BME280;38819;42.692;23.342;2023-04-26T12:28:02;94368.84;;;14.89;43.01
52957;BME280;38819;42.692;23.342;2023-04-26T12:30:28;94369.63;;;14.90;42.44
52957;BME280;38819;42.692;23.342;2023-04-26T12:32:54;94370.44;;;14.78;42.82
52957;BME280;38819;42.692;23.342;2023-04-26T12:35:20;94364.41;;;14.60;42.39
52957;BME280;38819;42.692;23.342;2023-04-26T12:37:46;94362.28;;;14.66;42.94
52957;BME280;38819;42.692;23.342;2023-04-26T12:40:12;94362.63;;;14.76;42.75
52957;BME280;38819;42.692;23.342;2023-04-26T12:42:38;94374.97;;;14.86;42.38
52957;BME280;38819;42.692;23.342;2023-04-26T12:45:03;94375.41;;;14.76;42.55
52957;BME280;38819;42.692;23.342;2023-04-26T12:47:30;94366.34;;;14.59;43.24
52957;BME280;38819;42.692;23.342;2023-04-26T12:49:56;94397.16;;;14.63;43.65
52957;BME280;38819;42.692;23.342;2023-04-26T12:52:23;94367.94;;;14.60;43.31
52957;BME280;38819;42.692;23.342;2023-04-26T12:54:48;94375.63;;;14.58;43.36
52957;BME280;38819;42.692;23.342;2023-04-26T12:57:14;94368.22;;;14.46;43.58
52957;BME280;38819;42.692;23.342;2023-04-26T12:59:39;94367.66;;;14.53;43.08
52957;BME280;38819;42.692;23.342;2023-04-26T13:02:05;94364.84;;;14.50;42.79
52957;BME280;38819;42.692;23.342;2023-04-26T13:04:32;94367.09;;;14.48;42.83
52957;BME280;38819;42.692;23.342;2023-04-26T13:06:58;94393.03;;;14.45;42.75
52957;BME280;38819;42.692;23.342;2023-04-26T13:09:23;94397.66;;;14.44;43.90